Time;durP1;ratioP1;P1;durP2;ratioP2;P2;SDS_P1;SDS_P2;PMS_P1;PMS_P2;Temp;Humidity;BMP_temperature;BMP_pressure;BME280_temperature;BME280_humidity;BME280_pressure;Samples;Min_cycle;Max_cycle;Signal;HPM_P1;HPM_P2
2021/06/19 00:02:16;;;;;;;20.35;18.38;;;;;;;26.17;54.73;101175.69;5029410;28;20198;-70
2021/06/19 00:04:41;;;;;;;21.13;19.30;;;;;;;26.18;55.10;101169.50;5030021;28;20177;-69
2021/06/19 00:07:06;;;;;;;20.20;18.40;;;;;;;26.17;55.08;101175.69;5029018;28;20185;-70
2021/06/19 00:09:32;;;;;;;21.55;19.58;;;;;;;26.16;55.26;101159.06;5028832;28;20205;-70
2021/06/19 00:12:02;;;;;;;22.35;20.02;;;;;;;26.15;55.18;101164.38;5029483;28;20170;-70
2021/06/19 00:14:27;;;;;;;21.42;19.40;;;;;;;26.15;55.33;101157.34;5028881;28;20186;-70
2021/06/19 00:16:53;;;;;;;21.10;19.30;;;;;;;26.14;54.91;101153.03;5029069;28;20186;-70
2021/06/19 00:19:19;;;;;;;21.05;19.17;;;;;;;26.13;55.04;101151.31;5029087;28;20202;-70
2021/06/19 00:21:44;;;;;;;21.77;19.67;;;;;;;26.11;54.86;101150.50;5029419;28;20202;-70
2021/06/19 00:24:11;;;;;;;20.75;18.88;;;;;;;26.11;55.12;101144.41;5029071;28;20182;-70
2021/06/19 00:26:38;;;;;;;21.08;19.00;;;;;;;26.09;55.09;101149.72;5029443;28;20336;-70
2021/06/19 00:29:03;;;;;;;20.65;18.65;;;;;;;26.07;55.31;101141.03;5028558;28;20190;-70
2021/06/19 00:31:29;;;;;;;20.63;18.75;;;;;;;26.07;55.13;101142.81;5029006;28;20170;-70
2021/06/19 00:33:54;;;;;;;21.27;18.77;;;;;;;26.07;55.37;101143.66;5027417;28;20183;-70
2021/06/19 00:36:19;;;;;;;20.58;18.67;;;;;;;26.05;55.10;101142.88;5029026;28;20201;-70
2021/06/19 00:38:45;;;;;;;21.17;19.27;;;;;;;26.06;55.36;101141.94;5031577;28;20183;-70
2021/06/19 00:41:10;;;;;;;20.77;18.73;;;;;;;26.04;55.28;101141.16;5031826;28;20730;-70
2021/06/19 00:43:37;;;;;;;19.58;17.80;;;;;;;26.03;55.22;101141.22;5031998;28;20202;-70
2021/06/19 00:46:03;;;;;;;20.20;18.45;;;;;;;26.02;54.71;101139.53;5015364;28;20186;-70
2021/06/19 00:48:28;;;;;;;19.83;18.13;;;;;;;26.00;55.10;101143.97;5032385;28;20197;-70
2021/06/19 00:50:53;;;;;;;20.85;18.85;;;;;;;25.99;54.73;101142.25;5032410;28;20605;-70
2021/06/19 00:53:18;;;;;;;20.08;18.08;;;;;;;25.97;55.05;101150.19;5032237;28;20701;-70
2021/06/19 00:55:44;;;;;;;20.55;18.67;;;;;;;25.94;55.05;101189.72;5031708;28;20190;-70
2021/06/19 00:58:09;;;;;;;21.38;19.23;;;;;;;25.95;55.37;101190.53;5014474;28;20198;-70
2021/06/19 01:00:35;;;;;;;19.57;17.97;;;;;;;25.97;55.13;101160.69;5032518;28;20205;-70
2021/06/19 01:03:00;;;;;;;21.48;19.48;;;;;;;26.00;54.99;101149.22;5033917;28;20206;-69
2021/06/19 01:05:29;;;;;;;22.55;20.63;;;;;;;25.98;55.68;101185.19;5035818;28;20186;-71
2021/06/19 01:07:55;;;;;;;22.27;20.27;;;;;;;25.98;55.09;101199.19;5032453;28;20186;-70
2021/06/19 01:10:20;;;;;;;21.30;19.42;;;;;;;26.00;55.12;101171.09;5031818;28;20268;-69
2021/06/19 01:12:46;;;;;;;21.38;19.40;;;;;;;26.01;55.23;101170.16;5032126;28;20186;-70
2021/06/19 01:15:14;;;;;;;22.85;20.83;;;;;;;25.99;55.16;101161.50;5032252;28;20185;-70
2021/06/19 01:17:40;;;;;;;22.63;20.63;;;;;;;26.00;55.44;101157.09;5031434;28;20264;-69
2021/06/19 01:20:11;;;;;;;22.58;20.70;;;;;;;25.98;55.60;101151.06;5031529;28;20241;-70
2021/06/19 01:22:43;;;;;;;21.95;20.15;;;;;;;25.97;55.65;101159.84;5031915;28;20206;-70
2021/06/19 01:25:15;;;;;;;22.95;20.92;;;;;;;25.94;55.87;101162.59;5032037;28;20179;-70
2021/06/19 01:27:40;;;;;;;23.48;21.38;;;;;;;25.94;55.38;101160.81;5031326;28;20233;-69
2021/06/19 01:30:08;;;;;;;22.95;20.67;;;;;;;25.92;55.64;101133.75;5031293;28;20294;-70
2021/06/19 01:32:37;;;;;;;21.60;19.73;;;;;;;25.93;55.63;101134.63;5031135;28;20249;-70
2021/06/19 01:35:04;;;;;;;21.35;19.55;;;;;;;25.93;55.49;101127.59;5031755;28;20704;-70
2021/06/19 01:37:29;;;;;;;22.03;19.93;;;;;;;25.93;55.54;101134.63;5025124;28;20196;-70
2021/06/19 01:40:06;;;;;;;22.75;20.75;;;;;;;25.93;55.13;101142.50;5030667;28;20581;-70
2021/06/19 01:42:31;;;;;;;22.90;20.85;;;;;;;25.91;55.38;101157.41;5029758;28;20205;-70
2021/06/19 01:44:56;;;;;;;22.98;20.70;;;;;;;25.88;55.30;101155.75;5031238;28;20182;-70
2021/06/19 01:47:22;;;;;;;22.05;20.05;;;;;;;25.88;55.66;101152.28;5030895;28;20237;-70
2021/06/19 01:49:47;;;;;;;23.05;20.75;;;;;;;25.85;55.74;101153.28;5031128;28;20202;-70
2021/06/19 01:52:12;;;;;;;25.33;21.23;;;;;;;25.84;55.63;101172.53;5031192;28;20344;-70
2021/06/19 01:54:38;;;;;;;22.75;20.42;;;;;;;25.83;55.16;101170.00;5029721;28;20185;-70
2021/06/19 01:57:05;;;;;;;23.67;21.48;;;;;;;25.83;55.44;101167.38;5031212;28;20177;-70
2021/06/19 01:59:31;;;;;;;23.15;20.95;;;;;;;25.79;55.43;101157.91;5030640;28;20232;-70
2021/06/19 02:01:58;;;;;;;23.02;20.95;;;;;;;25.78;55.46;101164.06;5030715;28;20210;-70
2021/06/19 02:04:24;;;;;;;23.63;21.35;;;;;;;25.77;55.57;101164.94;5031110;28;20175;-70
2021/06/19 02:06:49;;;;;;;23.33;21.00;;;;;;;25.73;55.32;101164.22;5030773;28;20188;-70
2021/06/19 02:09:15;;;;;;;24.17;21.73;;;;;;;25.73;55.37;101147.59;5030078;28;20218;-70
2021/06/19 02:11:40;;;;;;;23.17;21.10;;;;;;;25.73;55.51;101137.97;5030925;28;20561;-70
2021/06/19 02:14:05;;;;;;;23.10;20.70;;;;;;;25.72;55.48;101140.66;5030566;28;20217;-70
2021/06/19 02:16:31;;;;;;;23.27;20.97;;;;;;;25.69;55.68;101146.88;5030878;28;20233;-70
2021/06/19 02:18:56;;;;;;;23.70;21.50;;;;;;;25.67;55.28;101153.97;5030143;28;20191;-70
2021/06/19 02:21:21;;;;;;;22.13;20.00;;;;;;;25.67;55.52;101145.22;5030561;28;20185;-70
2021/06/19 02:23:47;;;;;;;22.53;20.43;;;;;;;25.65;55.83;101142.66;5030763;28;20186;-70
2021/06/19 02:26:12;;;;;;;22.77;20.50;;;;;;;25.62;55.39;101136.66;5029627;28;20175;-70
2021/06/19 02:28:37;;;;;;;22.40;20.27;;;;;;;25.61;55.42;101142.84;5030515;28;20244;-69
2021/06/19 02:31:02;;;;;;;23.57;21.47;;;;;;;25.59;55.73;101140.25;5012997;28;20663;-70
2021/06/19 02:33:28;;;;;;;21.97;19.97;;;;;;;25.57;55.71;101136.84;5030809;28;20174;-70
2021/06/19 02:35:53;;;;;;;23.13;20.83;;;;;;;25.56;55.61;101137.75;5035911;28;20590;-70
2021/06/19 02:38:20;;;;;;;22.80;20.73;;;;;;;25.56;55.53;101139.53;5030015;28;20557;-70
2021/06/19 02:40:47;;;;;;;22.73;20.63;;;;;;;25.56;55.67;101147.41;5030197;28;20601;-70
2021/06/19 02:43:14;;;;;;;23.75;21.45;;;;;;;25.53;55.63;101151.00;5030281;28;20206;-70
2021/06/19 02:45:40;;;;;;;23.05;20.88;;;;;;;25.52;55.53;101153.66;5028719;28;20177;-69
2021/06/19 02:48:06;;;;;;;23.00;20.93;;;;;;;25.52;55.48;101166.78;5029990;28;20706;-70
2021/06/19 02:50:34;;;;;;;24.75;22.27;;;;;;;25.52;55.29;101154.53;5030019;28;20271;-70
2021/06/19 02:53:01;;;;;;;24.73;22.63;;;;;;;25.50;55.38;101166.84;5029821;28;20731;-70
2021/06/19 02:55:28;;;;;;;24.00;21.90;;;;;;;25.48;55.70;101155.56;5030252;28;20190;-71
2021/06/19 02:57:55;;;;;;;24.23;21.95;;;;;;;25.47;55.63;101152.97;5029891;28;20190;-70
2021/06/19 03:00:21;;;;;;;24.65;22.25;;;;;;;25.46;55.88;101160.00;5029169;28;20311;-70
2021/06/19 03:02:47;;;;;;;25.50;23.38;;;;;;;25.47;55.90;101160.84;5029241;28;20876;-70
2021/06/19 03:05:15;;;;;;;25.52;23.33;;;;;;;25.46;55.23;101162.59;5029642;28;20206;-70
2021/06/19 03:07:41;;;;;;;24.50;22.38;;;;;;;25.47;55.49;101169.56;5029626;28;20726;-70
2021/06/19 03:10:09;;;;;;;26.57;24.37;;;;;;;25.47;55.82;101171.34;5028899;28;20289;-69
2021/06/19 03:12:34;;;;;;;27.05;24.65;;;;;;;25.44;55.71;101169.69;5029371;28;20178;-70
2021/06/19 03:15:00;;;;;;;29.40;26.23;;;;;;;25.43;55.97;101168.00;5029480;28;20198;-70
2021/06/19 03:17:25;;;;;;;28.77;26.17;;;;;;;25.41;55.58;101177.66;5029994;28;20174;-70
2021/06/19 03:19:50;;;;;;;28.27;25.50;;;;;;;25.39;55.87;101176.88;5029392;28;20206;-69
2021/06/19 03:22:16;;;;;;;28.30;25.60;;;;;;;25.39;55.75;101166.38;5029320;28;20198;-70
2021/06/19 03:24:43;;;;;;;28.17;25.80;;;;;;;25.39;55.82;101163.75;5029911;28;20549;-70
2021/06/19 03:27:10;;;;;;;28.95;26.35;;;;;;;25.38;55.64;101177.78;5012322;28;20170;-70
2021/06/19 03:29:36;;;;;;;28.88;26.05;;;;;;;25.37;55.90;101183.94;5029010;28;20285;-70
2021/06/19 03:32:03;;;;;;;28.87;26.27;;;;;;;25.36;56.21;101195.34;5029804;28;20615;-70
2021/06/19 03:34:28;;;;;;;27.73;25.05;;;;;;;25.36;55.93;101189.22;5027933;28;20182;-69
2021/06/19 03:36:59;;;;;;;28.43;26.13;;;;;;;25.36;56.22;101184.84;5029492;28;20184;-70
2021/06/19 03:39:25;;;;;;;28.63;25.93;;;;;;;25.37;56.06;101181.31;5029008;28;20222;-70
2021/06/19 03:41:50;;;;;;;29.30;26.57;;;;;;;25.38;55.90;101183.03;5029818;28;20659;-70
2021/06/19 03:44:15;;;;;;;30.83;27.93;;;;;;;25.39;55.91;101176.88;5011794;28;20190;-70
2021/06/19 03:46:40;;;;;;;30.37;27.57;;;;;;;25.39;55.90;101173.38;5029799;28;20923;-70
2021/06/19 03:49:06;;;;;;;28.80;26.20;;;;;;;25.38;55.82;101175.16;5029279;28;20186;-70
2021/06/19 03:51:31;;;;;;;28.70;26.23;;;;;;;25.39;55.86;101176.00;5029743;28;20186;-70
2021/06/19 03:53:56;;;;;;;29.70;26.80;;;;;;;25.39;56.12;101178.63;5027688;28;20186;-70
2021/06/19 03:56:22;;;;;;;30.60;27.67;;;;;;;25.39;56.26;101165.50;5029216;28;20562;-71
2021/06/19 03:58:47;;;;;;;30.20;27.43;;;;;;;25.41;56.14;101177.66;5029259;28;20175;-70
2021/06/19 04:01:13;;;;;;;28.70;26.17;;;;;;;25.41;56.22;101174.19;5029139;28;20202;-70
2021/06/19 04:03:38;;;;;;;29.52;26.77;;;;;;;25.42;55.90;101168.88;5029103;28;20209;-70
2021/06/19 04:06:04;;;;;;;29.10;26.57;;;;;;;25.43;56.46;101172.38;5027761;28;20210;-70
2021/06/19 04:08:29;;;;;;;29.83;27.23;;;;;;;25.44;56.30;101179.31;5028967;28;20439;-69
2021/06/19 04:10:54;;;;;;;29.87;27.27;;;;;;;25.45;56.29;101178.41;5044152;28;20212;-69
2021/06/19 04:13:20;;;;;;;29.17;26.60;;;;;;;25.44;56.29;101185.44;5052194;28;20189;-69
2021/06/19 04:15:45;;;;;;;31.17;28.43;;;;;;;25.46;56.10;101180.13;5032866;28;20183;-69
2021/06/19 04:18:10;;;;;;;30.97;28.10;;;;;;;25.45;56.39;101181.88;5037424;28;20177;-70
2021/06/19 04:20:36;;;;;;;30.37;27.57;;;;;;;25.46;56.32;101178.34;5036413;28;20249;-70
2021/06/19 04:23:01;;;;;;;31.17;28.53;;;;;;;25.49;56.39;101182.63;5034524;28;20232;-70
2021/06/19 04:25:26;;;;;;;29.70;27.17;;;;;;;25.49;56.23;101177.38;5035509;28;20610;-70
2021/06/19 04:27:55;;;;;;;30.77;28.10;;;;;;;25.50;56.57;101187.00;4994879;28;20183;-70
2021/06/19 04:30:21;;;;;;;30.48;27.75;;;;;;;25.53;56.18;101194.72;5012436;28;20203;-70
2021/06/19 04:32:47;;;;;;;30.33;27.50;;;;;;;25.53;56.57;101200.84;5008499;28;20675;-70
2021/06/19 04:35:14;;;;;;;29.83;27.10;;;;;;;25.54;56.16;101199.06;5011646;28;20222;-70
2021/06/19 04:37:40;;;;;;;30.98;28.27;;;;;;;25.55;56.45;101195.56;5017573;28;20217;-70
2021/06/19 04:42:37;;;;;;;30.05;27.35;;;;;;;25.57;56.47;101191.97;5032875;28;20198;-70
2021/06/19 04:45:05;;;;;;;30.30;27.70;;;;;;;25.59;56.16;101192.75;5033182;28;20231;-70
2021/06/19 04:47:33;;;;;;;30.40;27.75;;;;;;;25.64;56.19;101200.47;5038325;28;20217;-69
2021/06/19 04:49:59;;;;;;;32.03;29.10;;;;;;;25.66;56.25;101198.63;5033040;28;20198;-70
2021/06/19 04:52:24;;;;;;;33.80;30.73;;;;;;;25.67;56.95;101200.31;5032679;28;20170;-70
2021/06/19 04:54:53;;;;;;;33.10;30.10;;;;;;;25.67;56.49;101202.94;5032313;28;20182;-70
2021/06/19 04:57:18;;;;;;;31.92;29.23;;;;;;;25.65;56.87;101205.63;5032435;28;20190;-71
2021/06/19 04:59:43;;;;;;;32.80;29.77;;;;;;;25.67;56.63;101208.19;5032352;28;20578;-70
2021/06/19 05:02:09;;;;;;;34.10;31.20;;;;;;;25.68;56.73;101215.16;5032184;28;20198;-70
2021/06/19 05:04:34;;;;;;;32.83;29.90;;;;;;;25.68;56.75;101218.66;5029558;28;20233;-70
2021/06/19 05:06:59;;;;;;;32.20;29.30;;;;;;;25.67;56.54;101222.19;5031531;28;20673;-70
2021/06/19 05:09:24;;;;;;;33.53;30.23;;;;;;;25.69;56.46;101220.34;5031298;28;20681;-70
2021/06/19 05:11:50;;;;;;;32.67;30.02;;;;;;;25.70;56.92;101214.19;5013729;28;20185;-70
2021/06/19 05:14:15;;;;;;;32.13;29.40;;;;;;;25.70;56.52;101216.81;5038503;28;20558;-70
2021/06/19 05:16:40;;;;;;;34.88;31.55;;;;;;;25.71;57.02;101218.56;5051595;28;20188;-70
2021/06/19 05:19:06;;;;;;;34.07;31.00;;;;;;;25.72;56.94;101215.00;5051040;28;20600;-70
2021/06/19 05:21:32;;;;;;;36.83;32.10;;;;;;;25.73;56.79;101224.59;5051320;28;20166;-70
2021/06/19 05:23:57;;;;;;;34.03;30.55;;;;;;;25.74;56.62;101231.53;5020150;28;20269;-70
2021/06/19 05:26:22;;;;;;;34.78;31.52;;;;;;;25.73;56.91;101232.47;5011689;28;20188;-70
2021/06/19 05:28:47;;;;;;;35.38;32.20;;;;;;;25.73;57.16;101236.84;5011400;28;20211;-70
2021/06/19 05:31:13;;;;;;;33.80;30.65;;;;;;;25.74;56.86;101235.94;5009955;28;20198;-70
2021/06/19 05:33:38;;;;;;;33.20;30.20;;;;;;;25.74;57.14;101230.69;5011481;28;20179;-70
2021/06/19 05:36:04;;;;;;;34.80;31.63;;;;;;;25.74;57.12;101230.69;5011745;28;20194;-70
2021/06/19 05:38:29;;;;;;;34.03;30.95;;;;;;;25.75;56.75;101241.16;5011200;28;20187;-70
2021/06/19 05:40:54;;;;;;;34.73;31.33;;;;;;;25.79;56.68;101247.13;5014308;28;20208;-70
2021/06/19 05:43:20;;;;;;;33.67;30.63;;;;;;;25.82;56.90;101249.63;5019844;28;20683;-70
2021/06/19 05:45:45;;;;;;;33.17;29.93;;;;;;;25.82;56.42;101257.50;5031015;28;20694;-70
2021/06/19 05:48:10;;;;;;;32.15;29.38;;;;;;;25.83;56.79;101254.81;5016383;28;20689;-70
2021/06/19 05:50:35;;;;;;;33.00;30.00;;;;;;;25.84;56.72;101253.91;5011243;28;20203;-70
2021/06/19 05:53:01;;;;;;;30.98;28.38;;;;;;;25.87;56.22;101255.59;5010408;28;20221;-70
2021/06/19 05:55:27;;;;;;;30.05;27.25;;;;;;;25.89;56.54;101254.63;5011276;28;20187;-70
2021/06/19 05:57:52;;;;;;;32.20;29.33;;;;;;;25.91;56.31;101260.66;5011598;28;20599;-70
2021/06/19 06:00:18;;;;;;;30.52;27.50;;;;;;;25.93;56.22;101250.16;5024530;28;20217;-70
2021/06/19 06:02:44;;;;;;;30.38;27.63;;;;;;;25.96;56.24;101263.13;5020932;28;20213;-70
2021/06/19 06:05:10;;;;;;;29.87;27.13;;;;;;;25.99;55.99;101260.41;5030726;28;20174;-70
2021/06/19 06:07:36;;;;;;;28.23;25.75;;;;;;;26.01;56.25;101269.09;5030779;28;20790;-70
2021/06/19 06:10:03;;;;;;;29.38;26.83;;;;;;;26.03;55.90;101270.75;5030115;28;20217;-70
2021/06/19 06:12:28;;;;;;;27.23;24.92;;;;;;;26.04;55.52;101266.34;5030502;28;20299;-70
2021/06/19 06:14:53;;;;;;;27.77;25.23;;;;;;;26.04;56.06;101268.97;5018485;28;20887;-70
2021/06/19 06:17:18;;;;;;;27.98;25.58;;;;;;;26.07;55.85;101271.50;5010760;28;20201;-70
2021/06/19 06:19:44;;;;;;;28.23;25.73;;;;;;;26.07;55.90;101280.22;5010243;28;20222;-70
2021/06/19 06:22:09;;;;;;;26.52;24.23;;;;;;;26.10;55.66;101276.66;5010850;28;20221;-70
2021/06/19 06:24:34;;;;;;;26.00;23.60;;;;;;;26.12;54.95;101280.91;5009954;28;20179;-70
2021/06/19 06:27:00;;;;;;;25.85;23.52;;;;;;;26.15;55.25;101288.66;5010556;28;20561;-70
2021/06/19 06:29:25;;;;;;;24.38;22.17;;;;;;;26.18;55.28;101295.56;5023481;28;20202;-70
2021/06/19 06:31:51;;;;;;;158.63;28.00;;;;;;;26.41;58.42;101293.81;5030554;28;20179;-73
2021/06/19 06:34:17;;;;;;;22.60;20.45;;;;;;;28.68;49.67;101278.66;5018330;28;20183;-68
2021/06/19 06:36:43;;;;;;;24.13;21.83;;;;;;;27.62;51.24;101282.66;5027669;28;20187;-67
2021/06/19 06:39:09;;;;;;;23.40;21.10;;;;;;;27.04;52.78;101286.03;5011089;28;20190;-69
2021/06/19 06:41:35;;;;;;;25.08;22.27;;;;;;;26.80;54.11;101292.25;5025731;28;20784;-67
2021/06/19 06:44:00;;;;;;;24.35;22.05;;;;;;;26.71;54.50;101295.25;5001687;28;20186;-68
2021/06/19 06:46:25;;;;;;;23.13;21.08;;;;;;;26.67;54.25;101305.97;5030368;28;20177;-68
2021/06/19 06:48:51;;;;;;;23.55;21.40;;;;;;;26.67;54.41;101309.44;5022263;28;20197;-68
2021/06/19 06:51:16;;;;;;;22.75;20.60;;;;;;;26.63;54.81;101312.25;5014213;28;20210;-68
2021/06/19 06:53:42;;;;;;;22.52;20.27;;;;;;;26.64;54.97;101311.34;4983592;28;20210;-67
2021/06/19 06:56:07;;;;;;;21.58;19.48;;;;;;;26.63;54.36;101312.25;5007727;28;20260;-65
2021/06/19 06:58:33;;;;;;;22.50;18.20;;;;;;;26.65;53.86;101313.91;4992982;28;20183;-67
2021/06/19 07:01:00;;;;;;;21.50;19.23;;;;;;;26.65;53.88;101311.28;5021100;28;20201;-66
2021/06/19 07:03:25;;;;;;;19.90;17.88;;;;;;;26.67;54.47;101317.31;5022976;28;20596;-67
2021/06/19 07:05:51;;;;;;;19.70;17.75;;;;;;;26.66;54.34;101310.34;5011596;28;20193;-68
2021/06/19 07:08:16;;;;;;;19.98;18.15;;;;;;;26.67;53.95;101312.06;5010876;28;20183;-67
2021/06/19 07:10:41;;;;;;;19.98;18.00;;;;;;;26.69;53.64;101319.88;4995279;28;20251;-70
2021/06/19 07:13:07;;;;;;;19.45;17.58;;;;;;;26.71;54.21;101312.81;5017995;28;20178;-68
2021/06/19 07:15:32;;;;;;;18.25;16.58;;;;;;;26.76;54.18;101316.13;4992765;28;20175;-66
2021/06/19 07:17:57;;;;;;;18.92;17.05;;;;;;;26.76;53.58;101318.75;5022945;28;20266;-66
2021/06/19 07:20:23;;;;;;;19.55;17.45;;;;;;;26.77;54.13;101312.56;5027702;28;20710;-70
2021/06/19 07:22:48;;;;;;;18.58;16.90;;;;;;;26.83;53.91;101314.94;5016549;28;20197;-69
2021/06/19 07:25:14;;;;;;;17.42;15.80;;;;;;;26.95;53.90;101306.56;5013900;28;20321;-68
2021/06/19 07:27:40;;;;;;;16.15;14.63;;;;;;;26.96;53.83;101306.53;5012728;28;20274;-68
2021/06/19 07:30:08;;;;;;;16.45;14.43;;;;;;;26.95;53.50;101310.06;5022739;28;20614;-66
2021/06/19 07:32:34;;;;;;;16.67;14.77;;;;;;;26.97;53.85;101304.72;5007883;28;20198;-66
2021/06/19 07:35:00;;;;;;;19.80;15.02;;;;;;;26.98;53.61;101301.22;5010354;28;20179;-66
2021/06/19 07:37:25;;;;;;;16.13;14.50;;;;;;;27.00;53.96;101308.13;5010041;28;20175;-66
2021/06/19 07:39:53;;;;;;;15.85;14.25;;;;;;;27.01;53.65;101309.81;5027900;28;20550;-66
2021/06/19 07:42:20;;;;;;;14.82;13.27;;;;;;;27.02;52.80;101316.78;5029870;28;20209;-65
2021/06/19 07:44:45;;;;;;;17.50;14.05;;;;;;;27.03;53.30;101310.59;5014914;28;20241;-66
2021/06/19 07:47:10;;;;;;;14.13;12.77;;;;;;;27.06;52.89;101317.50;5032698;28;20170;-65
2021/06/19 07:49:36;;;;;;;12.52;11.32;;;;;;;27.07;52.56;101311.34;5033776;28;20209;-64
2021/06/19 07:52:03;;;;;;;12.25;11.05;;;;;;;27.09;52.57;101320.03;5022978;28;20549;-66
2021/06/19 07:54:29;;;;;;;13.05;11.40;;;;;;;27.09;52.97;101315.63;5034034;28;20676;-66
2021/06/19 07:56:54;;;;;;;12.82;10.73;;;;;;;27.11;52.59;101318.16;5001668;28;20233;-67
2021/06/19 07:59:20;;;;;;;12.82;11.57;;;;;;;27.13;52.59;101317.19;5025007;28;20202;-67
2021/06/19 08:01:45;;;;;;;11.32;9.70;;;;;;;27.13;51.81;101317.19;5017404;28;20257;-66
2021/06/19 08:04:10;;;;;;;11.23;10.13;;;;;;;27.15;52.19;101325.91;5031412;28;20267;-66
2021/06/19 08:06:35;;;;;;;11.73;9.32;;;;;;;27.15;51.38;101328.53;5014199;28;20186;-67
2021/06/19 08:09:01;;;;;;;10.32;8.75;;;;;;;27.18;51.50;101327.53;5013253;28;20195;-66
2021/06/19 08:11:26;;;;;;;9.65;8.65;;;;;;;27.19;50.74;101330.16;5013823;28;20178;-67
2021/06/19 08:13:53;;;;;;;10.75;9.38;;;;;;;27.19;51.39;101324.03;5023789;28;20802;-66
2021/06/19 08:16:19;;;;;;;8.52;7.25;;;;;;;27.19;51.10;101324.88;5033269;28;20616;-66
2021/06/19 08:18:48;;;;;;;8.77;7.88;;;;;;;27.20;50.82;101329.22;5030779;28;20188;-65
2021/06/19 08:21:14;;;;;;;7.03;6.32;;;;;;;27.21;50.02;101333.56;5032079;28;20218;-65
2021/06/19 08:23:40;;;;;;;9.68;6.50;;;;;;;27.22;49.98;101331.81;5033184;28;20199;-66
2021/06/19 08:26:06;;;;;;;7.45;6.40;;;;;;;27.24;49.59;101332.56;5033505;28;20179;-66
2021/06/19 08:28:33;;;;;;;6.63;6.03;;;;;;;27.25;50.03;101336.91;5033247;28;20187;-66
2021/06/19 08:30:58;;;;;;;8.13;6.40;;;;;;;27.25;50.43;101340.41;5024830;28;20281;-66
2021/06/19 08:33:24;;;;;;;6.47;5.75;;;;;;;27.25;49.71;101339.53;5028225;28;20240;-66
2021/06/19 08:35:49;;;;;;;7.10;5.90;;;;;;;27.26;49.87;101339.50;5030923;28;20182;-66
2021/06/19 08:38:14;;;;;;;8.05;5.78;;;;;;;27.27;49.59;101335.94;5027569;28;20179;-66
2021/06/19 08:40:40;;;;;;;6.57;5.57;;;;;;;27.27;49.71;101338.56;5028948;28;20211;-66
2021/06/19 08:43:05;;;;;;;5.78;5.18;;;;;;;27.29;49.31;101341.13;5028352;28;20837;-66
2021/06/19 08:45:32;;;;;;;4.97;4.50;;;;;;;27.30;49.49;101338.44;5022027;28;20182;-65
2021/06/19 08:48:00;;;;;;;4.78;4.30;;;;;;;27.30;48.96;101343.72;5032958;28;20174;-66
2021/06/19 08:50:25;;;;;;;5.75;4.43;;;;;;;27.33;49.43;101342.72;5024573;28;20206;-65
2021/06/19 08:52:51;;;;;;;5.05;4.25;;;;;;;27.32;49.32;101347.16;5013741;28;20186;-66
2021/06/19 08:55:18;;;;;;;7.55;4.75;;;;;;;27.36;49.13;101345.25;5013076;28;20179;-66
2021/06/19 08:57:44;;;;;;;5.05;4.57;;;;;;;27.35;49.21;101349.63;5011553;28;20171;-66
2021/06/19 09:00:11;;;;;;;4.43;3.83;;;;;;;27.36;48.76;101346.06;5012754;28;20294;-67
2021/06/19 09:02:37;;;;;;;4.82;4.15;;;;;;;27.36;49.71;101340.81;5013744;28;20214;-66
2021/06/19 09:05:10;;;;;;;5.53;4.22;;;;;;;27.35;49.06;101336.47;4995276;28;20171;-65
2021/06/19 09:07:44;;;;;;;6.43;4.00;;;;;;;27.34;48.71;101344.44;5026475;28;20190;-66
2021/06/19 09:10:36;;;;;;;5.55;3.83;;;;;;;27.36;48.62;101348.72;5031183;28;20201;-66
2021/06/19 09:13:05;;;;;;;5.95;3.83;;;;;;;27.36;48.55;101343.44;5032603;28;20170;-65
2021/06/19 09:15:35;;;;;;;3.97;3.58;;;;;;;27.37;48.54;101347.81;5024235;28;20266;-67
2021/06/19 09:18:21;;;;;;;4.53;3.78;;;;;;;27.40;49.03;101342.41;5026636;28;20258;-66
2021/06/19 09:20:59;;;;;;;7.13;3.45;;;;;;;27.40;48.91;101341.56;5032005;28;20229;-67
2021/06/19 09:23:29;;;;;;;5.25;3.38;;;;;;;27.41;47.89;101343.28;5032255;28;20211;-66
2021/06/19 09:26:16;;;;;;;3.67;3.00;;;;;;;27.44;47.95;101351.88;5022503;28;20206;-67
2021/06/19 09:29:04;;;;;;;4.22;2.72;;;;;;;27.48;48.07;101349.97;5029246;28;20260;-67
2021/06/19 09:31:44;;;;;;;6.18;3.10;;;;;;;27.48;47.02;101357.88;5012698;28;20163;-68
2021/06/19 09:34:12;;;;;;;5.15;2.63;;;;;;;27.46;47.74;101363.22;5018032;28;20179;-68
2021/06/19 09:36:39;;;;;;;2.95;2.60;;;;;;;27.46;47.21;101357.97;5043278;28;20188;-68
2021/06/19 09:39:06;;;;;;;3.78;2.70;;;;;;;27.49;48.29;101355.19;5053321;28;20261;-67
2021/06/19 09:41:39;;;;;;;3.75;2.72;;;;;;;27.53;47.61;101362.03;5049552;28;20240;-68
2021/06/19 09:44:06;;;;;;;3.47;3.00;;;;;;;27.50;47.37;101375.31;5025947;28;20672;-68
2021/06/19 09:46:32;;;;;;;2.85;2.47;;;;;;;27.47;46.93;101366.69;5013497;28;20183;-67
2021/06/19 09:49:10;;;;;;;5.70;2.63;;;;;;;27.46;47.02;101365.84;5024858;28;20686;-67
2021/06/19 09:51:36;;;;;;;2.70;2.50;;;;;;;27.47;47.14;101380.72;5032059;28;20640;-68
2021/06/19 09:54:06;;;;;;;3.15;2.60;;;;;;;27.48;46.71;101379.78;5031770;28;20189;-68
2021/06/19 09:56:52;;;;;;;3.85;2.60;;;;;;;27.50;47.04;101385.00;5030519;28;20183;-68
2021/06/19 09:59:26;;;;;;;5.30;3.15;;;;;;;27.49;46.65;101378.88;5030866;28;20239;-67
2021/06/19 10:01:52;;;;;;;3.45;3.03;;;;;;;27.51;46.36;101384.94;5030170;28;20238;-68
2021/06/19 10:04:35;;;;;;;6.72;3.08;;;;;;;27.54;46.12;101391.84;5031141;28;20221;-67
2021/06/19 10:07:00;;;;;;;4.28;2.85;;;;;;;27.57;47.21;101389.06;5031112;28;20174;-68
2021/06/19 10:09:26;;;;;;;4.65;2.80;;;;;;;27.59;46.63;101389.88;5030859;28;20248;-66
2021/06/19 10:11:54;;;;;;;6.72;3.20;;;;;;;27.83;46.02;101379.22;5012658;28;20696;-67
2021/06/19 10:14:23;;;;;;;4.97;3.47;;;;;;;27.98;45.87;101372.41;5018178;28;20183;-67
2021/06/19 10:16:51;;;;;;;3.55;3.08;;;;;;;28.11;45.48;101371.81;5011337;28;20688;-68
2021/06/19 10:19:19;;;;;;;4.82;3.10;;;;;;;28.14;45.53;101378.72;5025280;28;20191;-68
2021/06/19 10:21:45;;;;;;;4.53;3.53;;;;;;;28.22;44.85;101376.59;5011132;28;20298;-66
2021/06/19 10:24:12;;;;;;;4.95;3.20;;;;;;;28.26;44.56;101379.03;5011194;28;20603;-67
2021/06/19 10:26:38;;;;;;;5.35;3.20;;;;;;;28.34;44.59;101376.91;5011588;28;20671;-68
2021/06/19 10:29:06;;;;;;;4.47;3.05;;;;;;;28.35;44.02;101375.13;5030360;28;20185;-68
2021/06/19 10:31:49;;;;;;;6.40;3.13;;;;;;;28.43;44.89;101373.91;5030845;28;20186;-68
2021/06/19 10:34:18;;;;;;;5.63;3.83;;;;;;;28.50;44.87;101372.69;5031096;28;20227;-66
2021/06/19 10:36:44;;;;;;;6.22;3.67;;;;;;;28.48;44.06;101360.50;5031022;28;20547;-69
2021/06/19 10:39:09;;;;;;;6.13;3.97;;;;;;;28.51;44.21;101369.09;5031100;28;20175;-68
2021/06/19 10:42:04;;;;;;;4.10;3.70;;;;;;;28.59;44.67;101364.34;5030622;28;20681;-68
2021/06/19 10:44:52;;;;;;;6.00;3.75;;;;;;;28.52;44.25;101359.44;5002649;28;20195;-68
2021/06/19 10:47:22;;;;;;;3.97;3.42;;;;;;;28.30;45.01;101356.88;5010898;28;20233;-70
2021/06/19 10:49:48;;;;;;;5.00;3.30;;;;;;;28.09;45.42;101355.19;5010021;28;20199;-70
2021/06/19 10:52:30;;;;;;;3.70;3.22;;;;;;;27.94;45.62;101358.50;5010770;28;20183;-70
2021/06/19 10:55:19;;;;;;;3.50;3.20;;;;;;;27.89;46.97;101359.63;5010419;28;20177;-69
2021/06/19 10:57:53;;;;;;;4.25;3.63;;;;;;;27.84;46.37;101358.97;5019670;28;20281;-70
2021/06/19 11:00:28;;;;;;;3.50;3.20;;;;;;;27.81;46.91;101362.59;5029990;28;20551;-69
2021/06/19 11:02:55;;;;;;;4.25;3.20;;;;;;;27.80;46.94;101366.16;5030195;28;20232;-70
2021/06/19 11:05:49;;;;;;;6.32;3.85;;;;;;;27.78;46.24;101362.72;5030174;28;20182;-70
2021/06/19 11:08:15;;;;;;;3.88;3.47;;;;;;;27.77;45.90;101360.97;5030227;28;20166;-69
2021/06/19 11:10:47;;;;;;;3.85;3.28;;;;;;;27.78;45.73;101362.72;5029847;28;20729;-69
2021/06/19 11:13:27;;;;;;;4.18;3.22;;;;;;;27.77;46.75;101374.16;5030296;28;20607;-69
2021/06/19 11:15:52;;;;;;;3.58;3.28;;;;;;;27.77;46.69;101360.97;5029639;28;20174;-68
2021/06/19 11:18:52;;;;;;;4.40;3.40;;;;;;;27.76;46.44;101374.25;5029403;28;20197;-69